createdAt,value
2022-08-17T00:02:25.283Z,78.42
2022-08-17T00:07:06.263Z,78.81
2022-08-17T00:11:23.605Z,78.77
2022-08-17T00:15:27.500Z,79.03
2022-08-17T00:19:54.080Z,79.02
2022-08-17T00:24:34.507Z,79.03
2022-08-17T00:28:46.884Z,79.18
2022-08-17T00:33:19.706Z,79.31
2022-08-17T00:38:06.128Z,79.77
2022-08-17T00:42:18.567Z,79.58
2022-08-17T00:46:14.028Z,79.44
2022-08-17T00:50:25.678Z,79.42
2022-08-17T00:54:40.987Z,79.51
2022-08-17T00:58:54.281Z,79.41
2022-08-17T01:03:12.881Z,79.25
2022-08-17T01:07:30.544Z,79.06
2022-08-17T01:11:59.000Z,79.12
2022-08-17T01:16:32.136Z,79.27
2022-08-17T01:20:48.340Z,78.62
2022-08-17T01:25:15.045Z,78.71
2022-08-17T01:29:34.356Z,78.99
2022-08-17T01:33:47.002Z,79.32
2022-08-17T01:37:59.303Z,79.13
2022-08-17T01:42:11.828Z,79.10
2022-08-17T01:46:32.724Z,79.36
2022-08-17T01:50:58.738Z,79.35
2022-08-17T01:55:39.820Z,79.29
2022-08-17T01:59:46.155Z,79.66
2022-08-17T02:03:56.142Z,79.41
2022-08-17T02:08:09.200Z,79.72
2022-08-17T02:12:43.904Z,79.57
2022-08-17T02:21:38.431Z,79.60
2022-08-17T02:25:49.579Z,79.64
2022-08-17T02:29:54.401Z,79.47
2022-08-17T02:34:26.615Z,79.82
2022-08-17T02:38:38.995Z,79.68
2022-08-17T02:43:11.847Z,79.72
2022-08-17T02:47:36.996Z,79.17
2022-08-17T02:52:42.322Z,79.17
2022-08-17T02:57:09.434Z,79.50
2022-08-17T03:01:21.864Z,79.74
2022-08-17T03:05:34.286Z,79.93
2022-08-17T03:09:46.257Z,79.85
2022-08-17T03:14:12.076Z,79.73
2022-08-17T03:18:45.220Z,79.88
2022-08-17T03:22:53.271Z,79.78
2022-08-17T03:27:06.167Z,79.69
2022-08-17T03:31:37.011Z,79.70
2022-08-17T03:35:42.586Z,79.59
2022-08-17T03:40:08.566Z,79.64
2022-08-17T03:44:34.179Z,79.57
2022-08-17T03:48:58.216Z,79.39
2022-08-17T03:53:43.443Z,79.50
2022-08-17T03:57:55.587Z,79.65
2022-08-17T04:02:15.977Z,79.74
2022-08-17T04:06:27.915Z,79.81
2022-08-17T04:10:44.865Z,79.49
2022-08-17T04:15:11.362Z,79.66
2022-08-17T04:19:44.198Z,79.75
2022-08-17T04:24:10.191Z,79.69
2022-08-17T04:28:22.607Z,79.88
2022-08-17T04:33:04.058Z,80.15
2022-08-17T04:37:16.441Z,80.19
2022-08-17T04:41:47.581Z,80.38
2022-08-17T04:46:20.482Z,80.06
2022-08-17T04:50:40.975Z,80.00
2022-08-17T04:54:43.269Z,79.71
2022-08-17T04:59:09.300Z,79.74
2022-08-17T05:03:27.481Z,79.83
2022-08-17T05:07:53.086Z,80.05
2022-08-17T05:12:05.095Z,80.39
2022-08-17T05:16:17.338Z,80.49
2022-08-17T05:20:29.509Z,80.73
2022-08-17T05:24:43.684Z,80.83
2022-08-17T05:29:08.455Z,81.13
2022-08-17T05:33:20.801Z,81.28
2022-08-17T05:37:45.528Z,81.25
2022-08-17T05:41:58.202Z,80.92
2022-08-17T05:46:10.444Z,80.66
2022-08-17T05:50:43.329Z,80.34
2022-08-17T05:54:56.177Z,80.06
2022-08-17T05:59:21.090Z,79.89
2022-08-17T06:04:13.195Z,79.29
2022-08-17T06:08:31.090Z,78.67
2022-08-17T06:12:43.584Z,78.75
2022-08-17T06:17:32.603Z,78.09
2022-08-17T06:26:30.287Z,77.97
2022-08-17T06:31:13.539Z,78.12
2022-08-17T06:35:46.899Z,77.85
2022-08-17T06:40:16.704Z,77.23
2022-08-17T06:44:42.172Z,76.50
2022-08-17T06:49:10.065Z,76.71
2022-08-17T06:54:05.783Z,76.03
2022-08-17T06:58:40.248Z,75.73
2022-08-17T07:03:29.159Z,75.35
2022-08-17T07:08:30.567Z,73.90
2022-08-17T07:13:16.862Z,72.94
2022-08-17T07:17:52.436Z,71.30
2022-08-17T07:22:51.930Z,70.84
2022-08-17T07:27:45.626Z,70.64
2022-08-17T07:32:18.928Z,69.94
2022-08-17T07:36:41.941Z,69.29
2022-08-17T07:40:51.543Z,69.78
2022-08-17T07:45:30.383Z,69.67
2022-08-17T07:49:52.441Z,68.85
2022-08-17T07:54:15.341Z,68.38
2022-08-17T07:58:48.350Z,68.18
2022-08-17T08:03:07.335Z,67.38
2022-08-17T08:12:36.978Z,66.35
2022-08-17T08:17:38.909Z,65.59
2022-08-17T08:22:10.244Z,64.88
2022-08-17T08:26:43.228Z,64.81
2022-08-17T08:31:22.170Z,64.40
2022-08-17T08:35:54.912Z,63.58
2022-08-17T08:40:42.511Z,63.65
2022-08-17T08:45:04.981Z,63.85
2022-08-17T08:49:59.172Z,62.95
2022-08-17T08:54:26.435Z,62.47
2022-08-17T08:59:11.367Z,62.46
2022-08-17T09:03:53.151Z,62.29
2022-08-17T09:08:37.414Z,63.04
2022-08-17T09:13:21.289Z,62.77
2022-08-17T09:19:02.198Z,62.23
2022-08-17T09:22:59.441Z,62.35
2022-08-17T09:27:34.526Z,61.88
2022-08-17T09:32:18.213Z,61.57
2022-08-17T09:37:09.661Z,61.50
2022-08-17T09:41:53.517Z,60.35
2022-08-17T09:46:29.190Z,60.83
2022-08-17T09:51:04.200Z,60.95
2022-08-17T09:55:35.434Z,60.73
2022-08-17T10:00:07.009Z,60.59
2022-08-17T10:04:38.162Z,60.27
2022-08-17T10:09:17.992Z,60.02
2022-08-17T10:14:00.963Z,59.62
2022-08-17T10:18:46.824Z,59.50
2022-08-17T10:23:23.224Z,59.38
2022-08-17T10:27:56.627Z,59.15
2022-08-17T10:32:38.157Z,59.16
2022-08-17T10:37:29.810Z,59.74
2022-08-17T10:42:33.230Z,59.39
2022-08-17T10:47:26.963Z,58.29
2022-08-17T10:57:23.211Z,56.92
2022-08-17T11:01:40.869Z,57.12
2022-08-17T11:06:21.046Z,58.15
2022-08-17T11:10:52.234Z,58.93
2022-08-17T11:15:40.828Z,58.92
2022-08-17T11:20:28.999Z,59.87
2022-08-17T11:24:49.147Z,59.58
2022-08-17T11:29:27.998Z,60.08
2022-08-17T11:34:15.523Z,59.99
2022-08-17T11:39:06.248Z,59.21
2022-08-17T11:43:42.802Z,59.46
2022-08-17T11:48:27.724Z,59.00
2022-08-17T11:53:15.651Z,58.83
2022-08-17T11:57:51.682Z,59.41
2022-08-17T12:02:27.645Z,59.60
2022-08-17T12:07:05.033Z,59.78
2022-08-17T12:12:01.579Z,59.15
2022-08-17T12:16:18.462Z,59.38
2022-08-17T12:20:56.073Z,60.39
2022-08-17T12:25:29.677Z,61.05
2022-08-17T12:29:55.618Z,60.67
2022-08-17T12:34:29.103Z,60.60
2022-08-17T12:43:34.224Z,60.29
2022-08-17T12:48:01.726Z,59.22
2022-08-17T12:52:29.361Z,60.20
2022-08-17T12:57:01.934Z,60.59
2022-08-17T13:01:44.544Z,60.58
2022-08-17T13:06:23.340Z,60.17
2022-08-17T13:10:57.803Z,59.93
2022-08-17T13:15:32.910Z,59.56
2022-08-17T13:19:53.859Z,59.06
2022-08-17T13:24:15.418Z,59.42
2022-08-17T13:28:48.875Z,59.13
2022-08-17T13:33:44.520Z,59.14
2022-08-17T13:38:18.372Z,60.19
2022-08-17T13:42:53.134Z,59.79
2022-08-17T13:47:22.609Z,60.16
2022-08-17T13:51:57.355Z,59.90
2022-08-17T13:56:38.621Z,59.52
2022-08-17T14:01:18.908Z,60.48
2022-08-17T14:05:52.120Z,61.03
2022-08-17T14:10:19.544Z,61.25
2022-08-17T14:14:46.081Z,61.30
2022-08-17T14:19:19.396Z,61.69
2022-08-17T14:23:57.374Z,61.42
2022-08-17T14:28:10.139Z,61.43
2022-08-17T14:32:43.299Z,61.60
2022-08-17T14:41:45.623Z,62.45
2022-08-17T14:46:15.151Z,62.31
2022-08-17T14:50:39.371Z,62.39
2022-08-17T14:55:20.113Z,62.87
2022-08-17T14:59:57.130Z,63.20
2022-08-17T15:04:23.398Z,64.18
2022-08-17T15:08:52.293Z,64.64
2022-08-17T15:13:28.562Z,65.04
2022-08-17T15:18:03.047Z,65.41
2022-08-17T15:22:44.899Z,65.65
2022-08-17T15:27:13.977Z,65.78
2022-08-17T15:32:00.707Z,66.21
2022-08-17T15:36:41.408Z,66.33
2022-08-17T15:41:22.832Z,66.62
2022-08-17T15:45:59.682Z,66.93
2022-08-17T15:50:24.991Z,67.37
2022-08-17T15:55:18.748Z,67.73
2022-08-17T16:00:08.801Z,67.94
2022-08-17T16:04:47.942Z,67.98
2022-08-17T16:09:21.443Z,67.97
2022-08-17T16:13:56.200Z,68.39
2022-08-17T16:18:30.141Z,68.59
2022-08-17T16:23:20.163Z,69.04
2022-08-17T16:27:45.445Z,69.28
2022-08-17T16:37:37.530Z,70.06
2022-08-17T16:42:16.032Z,70.20
2022-08-17T16:46:51.129Z,70.48
2022-08-17T17:00:57.085Z,70.51
2022-08-17T17:05:28.722Z,70.56
2022-08-17T17:10:04.851Z,70.42
2022-08-17T17:14:37.011Z,70.61
2022-08-17T17:23:58.945Z,71.17
2022-08-17T17:28:32.943Z,71.23
2022-08-17T17:33:00.373Z,71.44
2022-08-17T17:42:20.457Z,72.27
2022-08-17T17:46:51.374Z,72.81
2022-08-17T17:51:54.752Z,72.95
2022-08-17T17:56:43.300Z,73.54
2022-08-17T18:01:14.959Z,73.80
2022-08-17T18:05:48.235Z,74.25
2022-08-17T18:10:43.750Z,74.34
2022-08-17T18:15:22.628Z,74.36
2022-08-17T18:19:58.624Z,74.60
2022-08-17T18:24:34.278Z,74.72
2022-08-17T18:28:52.540Z,75.01
2022-08-17T18:33:34.563Z,75.31
2022-08-17T18:38:14.572Z,75.15
2022-08-17T18:42:36.394Z,75.10
2022-08-17T18:51:05.495Z,74.73
2022-08-17T18:55:40.677Z,74.47
2022-08-17T19:00:21.504Z,74.24
2022-08-17T19:04:54.971Z,75.53
2022-08-17T19:09:30.786Z,76.13
2022-08-17T19:14:12.760Z,76.29
2022-08-17T19:18:48.352Z,76.21
2022-08-17T19:28:23.021Z,75.95
2022-08-17T19:32:56.284Z,75.99
2022-08-17T19:37:45.884Z,76.43
2022-08-17T19:42:21.317Z,76.43
2022-08-17T19:47:43.112Z,76.47
2022-08-17T19:52:05.499Z,76.53
2022-08-17T19:56:44.977Z,76.72
2022-08-17T20:01:08.743Z,76.67
2022-08-17T20:06:14.451Z,76.95
2022-08-17T20:10:55.098Z,77.45
2022-08-17T20:15:34.009Z,77.81
2022-08-17T20:20:19.795Z,77.99
2022-08-17T20:25:04.229Z,78.24
2022-08-17T20:29:39.987Z,78.26
2022-08-17T20:34:17.907Z,78.40
2022-08-17T20:38:51.227Z,78.49
2022-08-17T20:43:24.657Z,78.29
2022-08-17T20:53:03.609Z,78.32
2022-08-17T20:57:50.196Z,78.20
2022-08-17T21:02:23.183Z,78.23
2022-08-17T21:07:10.331Z,78.11
2022-08-17T21:11:56.749Z,78.32
2022-08-17T21:16:51.299Z,78.81
2022-08-17T21:21:24.384Z,78.99
2022-08-17T21:25:55.663Z,79.06
2022-08-17T21:30:28.630Z,79.14
2022-08-17T21:35:22.059Z,79.36
2022-08-17T21:40:11.082Z,79.32
2022-08-17T21:44:38.846Z,79.36
2022-08-17T21:49:16.680Z,79.35
2022-08-17T21:53:49.764Z,79.12
2022-08-17T21:58:22.954Z,78.87
2022-08-17T22:03:10.566Z,78.69
2022-08-17T22:07:43.746Z,79.18
2022-08-17T22:12:15.135Z,79.38
2022-08-17T22:16:53.573Z,79.27
2022-08-17T22:21:22.724Z,79.45
2022-08-17T22:26:06.553Z,79.43
2022-08-17T22:30:45.430Z,79.45
2022-08-17T22:40:10.849Z,79.24
2022-08-17T22:44:48.544Z,79.33
2022-08-17T22:49:26.562Z,79.46
2022-08-17T22:54:01.112Z,79.41
2022-08-17T22:58:26.889Z,79.28
2022-08-17T23:02:55.095Z,79.30
2022-08-17T23:07:19.384Z,79.49
2022-08-17T23:11:52.122Z,79.66
2022-08-17T23:16:26.364Z,79.91
2022-08-17T23:20:59.633Z,80.15
2022-08-17T23:25:32.930Z,80.21
2022-08-17T23:35:08.622Z,80.84
2022-08-17T23:39:41.470Z,81.33
2022-08-17T23:44:27.675Z,81.81
2022-08-17T23:49:00.142Z,82.32
2022-08-17T23:53:32.864Z,83.15
2022-08-17T23:58:19.311Z,83.45
